createdAt,value
2023-11-14T00:02:55.919Z,98046.33
2023-11-14T00:05:57.564Z,98036.41
2023-11-14T00:08:59.221Z,98030.95
2023-11-14T00:12:00.843Z,98029.98
2023-11-14T00:15:02.639Z,98027.71
2023-11-14T00:18:04.441Z,98025.02
2023-11-14T00:21:06.296Z,98023.38
2023-11-14T00:24:08.867Z,98021.38
2023-11-14T00:27:10.596Z,98016.45
2023-11-14T00:30:12.592Z,98015.63
2023-11-14T00:33:14.332Z,98002.30
2023-11-14T00:36:15.986Z,97997.89
2023-11-14T00:39:17.549Z,97992.01
2023-11-14T00:42:19.152Z,97987.91
2023-11-14T00:45:20.893Z,97985.23
2023-11-14T00:48:22.551Z,97980.85
2023-11-14T00:51:24.327Z,97981.08
2023-11-14T00:54:26.063Z,97974.73
2023-11-14T00:57:27.787Z,97974.90
2023-11-14T01:00:29.578Z,97983.33
2023-11-14T01:03:31.693Z,97982.17
2023-11-14T01:06:33.936Z,97975.41
2023-11-14T01:09:35.757Z,97976.92
2023-11-14T01:12:37.705Z,97984.83
2023-11-14T01:15:39.407Z,97991.34
2023-11-14T01:18:41.243Z,98007.77
2023-11-14T01:21:42.909Z,98026.69
2023-11-14T01:24:44.717Z,98036.55
2023-11-14T01:27:46.462Z,98046.38
2023-11-14T01:30:48.080Z,98047.85
2023-11-14T01:33:49.774Z,98056.55
2023-11-14T01:36:51.558Z,98066.20
2023-11-14T01:39:53.266Z,98095.84
2023-11-14T01:43:01.569Z,98083.14
2023-11-14T01:46:03.597Z,98083.36
2023-11-14T01:49:05.336Z,98084.84
2023-11-14T01:52:07.128Z,98080.38
2023-11-14T01:55:09.261Z,98072.55
2023-11-14T01:58:11.220Z,98048.41
2023-11-14T02:01:13.052Z,98025.05
2023-11-14T02:04:17.682Z,98023.96
2023-11-14T02:07:20.515Z,98043.11
2023-11-14T02:10:22.298Z,98058.34
2023-11-14T02:13:24.250Z,98041.47
2023-11-14T02:16:26.008Z,98026.14
2023-11-14T02:19:27.941Z,98017.23
2023-11-14T02:22:29.707Z,98005.67
2023-11-14T02:25:31.686Z,97996.34
2023-11-14T02:28:33.510Z,97989.41
2023-11-14T02:31:36.138Z,97985.30
2023-11-14T02:34:37.997Z,97986.59
2023-11-14T02:37:40.161Z,97989.73
2023-11-14T02:40:41.990Z,98010.12
2023-11-14T02:43:43.757Z,98020.16
2023-11-14T02:46:45.415Z,98045.05
2023-11-14T02:49:51.395Z,98048.70
2023-11-14T02:52:53.314Z,98057.95
2023-11-14T02:55:55.186Z,98075.99
2023-11-14T02:58:56.911Z,98075.26
2023-11-14T03:01:58.643Z,98045.52
2023-11-14T03:05:00.495Z,98005.15
2023-11-14T03:08:02.545Z,98030.73
2023-11-14T03:11:04.385Z,98042.52
2023-11-14T03:14:06.262Z,98046.35
2023-11-14T03:17:08.104Z,98037.71
2023-11-14T03:20:20.818Z,98044.35
2023-11-14T03:23:30.214Z,98035.58
2023-11-14T03:26:32.687Z,98020.14
2023-11-14T03:29:35.321Z,98014.86
2023-11-14T03:32:37.306Z,98004.88
2023-11-14T03:35:39.246Z,98008.48
2023-11-14T03:38:40.992Z,98015.80
2023-11-14T03:41:42.755Z,98029.09
2023-11-14T03:44:44.452Z,98035.80
2023-11-14T03:47:46.328Z,98045.94
2023-11-14T03:50:48.069Z,98052.97
2023-11-14T03:53:49.712Z,98066.28
2023-11-14T03:56:51.554Z,98074.61
2023-11-14T03:59:53.236Z,98075.42
2023-11-14T04:02:55.055Z,98072.02
2023-11-14T04:05:56.800Z,98073.25
2023-11-14T04:08:58.515Z,98073.23
2023-11-14T04:12:00.511Z,98074.27
2023-11-14T04:15:02.447Z,98075.59
2023-11-14T04:18:04.529Z,98069.79
2023-11-14T04:21:06.396Z,98075.23
2023-11-14T04:24:08.790Z,98086.98
2023-11-14T04:27:10.518Z,98081.52
2023-11-14T04:30:12.746Z,98079.07
2023-11-14T04:33:14.717Z,98083.69
2023-11-14T04:36:16.600Z,98095.44
2023-11-14T04:39:18.251Z,98100.15
2023-11-14T04:42:20.030Z,98103.48
2023-11-14T04:45:21.943Z,98105.17
2023-11-14T04:48:23.750Z,98102.14
2023-11-14T04:51:25.566Z,98103.34
2023-11-14T04:54:27.209Z,98104.37
2023-11-14T04:57:28.702Z,98110.20
2023-11-14T05:00:34.150Z,98117.73
2023-11-14T05:03:38.069Z,98120.64
2023-11-14T05:06:40.055Z,98128.77
2023-11-14T05:09:42.468Z,98134.29
2023-11-14T05:12:44.265Z,98140.24
2023-11-14T05:15:46.838Z,98144.85
2023-11-14T05:18:48.453Z,98142.97
2023-11-14T05:21:50.916Z,98153.34
2023-11-14T05:24:52.606Z,98167.45
2023-11-14T05:27:54.571Z,98169.73
2023-11-14T05:30:56.250Z,98176.02
2023-11-14T05:33:57.951Z,98182.03
2023-11-14T05:36:59.619Z,98182.71
2023-11-14T05:40:01.160Z,98187.52
2023-11-14T05:43:02.741Z,98201.05
2023-11-14T05:46:04.411Z,98204.96
2023-11-14T05:49:06.109Z,98211.38
2023-11-14T05:52:08.139Z,98215.64
2023-11-14T05:55:09.865Z,98220.86
2023-11-14T05:58:12.145Z,98222.02
2023-11-14T06:01:13.875Z,98223.59
2023-11-14T06:04:15.638Z,98235.63
2023-11-14T06:07:17.463Z,98243.60
2023-11-14T06:10:19.152Z,98250.93
2023-11-14T06:13:21.457Z,98249.09
2023-11-14T06:16:26.463Z,98251.77
2023-11-14T06:19:29.191Z,98255.04
2023-11-14T06:22:30.954Z,98258.95
2023-11-14T06:25:32.810Z,98257.40
2023-11-14T06:28:34.525Z,98262.84
2023-11-14T06:31:36.116Z,98270.20
2023-11-14T06:34:37.892Z,98281.02
2023-11-14T06:37:39.604Z,98285.48
2023-11-14T06:40:41.274Z,98293.13
2023-11-14T06:43:43.151Z,98289.58
2023-11-14T06:46:44.904Z,98289.04
2023-11-14T06:49:46.740Z,98299.20
2023-11-14T06:52:48.785Z,98305.05
2023-11-14T06:55:50.759Z,98303.48
2023-11-14T06:58:52.566Z,98315.81
2023-11-14T07:01:54.333Z,98321.16
2023-11-14T07:04:56.063Z,98322.56
2023-11-14T07:07:59.040Z,98322.27
2023-11-14T07:11:01.116Z,98321.98
2023-11-14T07:14:02.863Z,98326.93
2023-11-14T07:17:05.168Z,98326.52
2023-11-14T07:20:07.616Z,98325.17
2023-11-14T07:23:09.875Z,98330.59
2023-11-14T07:26:11.700Z,98335.59
2023-11-14T07:29:14.541Z,98338.92
2023-11-14T07:32:16.614Z,98339.18
2023-11-14T07:35:18.457Z,98338.09
2023-11-14T07:38:20.216Z,98338.73
2023-11-14T07:41:22.097Z,98335.27
2023-11-14T07:44:23.788Z,98334.95
2023-11-14T07:47:25.565Z,98331.41
2023-11-14T07:50:27.740Z,98327.27
2023-11-14T07:53:30.443Z,98324.83
2023-11-14T07:56:32.178Z,98321.43
2023-11-14T07:59:33.954Z,98317.39
2023-11-14T08:02:35.828Z,98322.55
2023-11-14T08:05:38.688Z,98323.49
2023-11-14T08:08:40.426Z,98325.16
2023-11-14T08:11:42.111Z,98328.02
2023-11-14T08:14:43.837Z,98331.99
2023-11-14T08:17:45.821Z,98334.73
2023-11-14T08:20:47.637Z,98332.95
2023-11-14T08:23:49.502Z,98335.84
2023-11-14T08:26:51.313Z,98334.98
2023-11-14T08:29:53.124Z,98333.95
2023-11-14T08:32:55.706Z,98332.92
2023-11-14T08:35:57.547Z,98339.16
2023-11-14T08:38:59.496Z,98342.41
2023-11-14T08:42:02.376Z,98343.19
2023-11-14T08:45:05.658Z,98340.79
2023-11-14T08:48:08.847Z,98344.59
2023-11-14T08:51:10.653Z,98345.98
2023-11-14T08:54:12.299Z,98341.61
2023-11-14T08:57:13.939Z,98341.33
2023-11-14T09:00:16.190Z,98340.58
2023-11-14T09:03:18.044Z,98347.41
2023-11-14T09:06:19.907Z,98348.52
2023-11-14T09:09:22.266Z,98352.14
2023-11-14T09:12:23.901Z,98349.83
2023-11-14T09:15:25.540Z,98349.98
2023-11-14T09:18:27.485Z,98344.51
2023-11-14T09:21:29.285Z,98345.02
2023-11-14T09:24:31.112Z,98346.17
2023-11-14T09:27:32.764Z,98351.22
2023-11-14T09:30:34.917Z,98351.77
2023-11-14T09:33:37.172Z,98352.52
2023-11-14T09:36:40.271Z,98354.14
2023-11-14T09:39:42.194Z,98353.49
2023-11-14T09:42:44.069Z,98358.17
2023-11-14T09:45:46.613Z,98373.66
2023-11-14T09:48:48.689Z,98378.92
2023-11-14T09:51:51.125Z,98381.71
2023-11-14T09:54:53.134Z,98380.98
2023-11-14T09:57:54.820Z,98379.33
2023-11-14T10:00:56.635Z,98371.64
2023-11-14T10:03:58.435Z,98375.25
2023-11-14T10:07:00.640Z,98374.65
2023-11-14T10:10:03.085Z,98371.38
2023-11-14T10:13:04.763Z,98370.14
2023-11-14T10:16:22.789Z,98368.45
2023-11-14T10:19:24.623Z,98374.07
2023-11-14T10:22:26.595Z,98372.92
2023-11-14T10:25:30.441Z,98378.29
2023-11-14T10:28:32.215Z,98367.45
2023-11-14T10:31:38.620Z,98363.75
2023-11-14T10:34:40.586Z,98352.64
2023-11-14T10:37:42.241Z,98349.75
2023-11-14T10:40:48.826Z,98354.13
2023-11-14T10:43:50.795Z,98353.19
2023-11-14T10:46:57.339Z,98346.75
2023-11-14T10:49:59.127Z,98339.30
2023-11-14T10:53:01.709Z,98344.83
2023-11-14T10:56:03.862Z,98335.42
2023-11-14T10:59:07.352Z,98335.39
2023-11-14T11:02:09.599Z,98344.95
2023-11-14T11:05:24.493Z,98349.98
2023-11-14T11:08:30.413Z,98357.50
2023-11-14T11:11:43.244Z,98368.67
2023-11-14T11:14:45.840Z,98376.57
2023-11-14T11:17:47.726Z,98381.52
2023-11-14T11:20:49.578Z,98370.61
2023-11-14T11:24:05.675Z,98357.29
2023-11-14T11:27:14.009Z,98391.19
2023-11-14T11:30:15.657Z,98393.49
2023-11-14T11:33:33.606Z,98375.70
2023-11-14T11:36:35.440Z,98363.25
2023-11-14T11:40:06.729Z,98361.35
2023-11-14T11:43:11.576Z,98350.16
2023-11-14T11:46:33.910Z,98353.79
2023-11-14T11:49:35.694Z,98347.31
2023-11-14T11:52:37.342Z,98358.78
2023-11-14T11:55:39.130Z,98359.68
2023-11-14T11:58:47.424Z,98359.35
2023-11-14T12:01:49.083Z,98368.14
2023-11-14T12:04:51.668Z,98361.48
2023-11-14T12:07:53.847Z,98361.55
2023-11-14T12:10:56.030Z,98352.75
2023-11-14T12:13:58.006Z,98346.65
2023-11-14T12:16:59.895Z,98359.95
2023-11-14T12:20:02.785Z,98351.71
2023-11-14T12:23:06.288Z,98338.34
2023-11-14T12:26:08.602Z,98331.86
2023-11-14T12:29:11.283Z,98331.64
2023-11-14T12:32:13.434Z,98338.59
2023-11-14T12:35:15.685Z,98335.59
2023-11-14T12:38:29.470Z,98342.77
2023-11-14T12:41:31.644Z,98339.41
2023-11-14T12:44:34.157Z,98340.04
2023-11-14T12:47:39.165Z,98347.54
2023-11-14T12:50:42.146Z,98340.02
2023-11-14T12:53:44.091Z,98341.13
2023-11-14T12:56:46.244Z,98339.20
2023-11-14T12:59:47.908Z,98347.19
2023-11-14T13:02:50.111Z,98346.23
2023-11-14T13:05:51.828Z,98352.70
2023-11-14T13:08:53.540Z,98351.52
2023-11-14T13:11:55.422Z,98354.33
2023-11-14T13:14:57.116Z,98345.05
2023-11-14T13:17:58.811Z,98335.14
2023-11-14T13:21:00.743Z,98351.89
2023-11-14T13:24:03.362Z,98353.56
2023-11-14T13:27:05.767Z,98368.98
2023-11-14T13:30:08.579Z,98376.79
2023-11-14T13:33:10.362Z,98376.47
2023-11-14T13:36:12.205Z,98383.69
2023-11-14T13:39:14.140Z,98387.70
2023-11-14T13:42:16.128Z,98395.72
2023-11-14T13:45:17.824Z,98394.58
2023-11-14T13:48:19.969Z,98398.58
2023-11-14T13:51:21.943Z,98392.04
2023-11-14T13:54:23.919Z,98385.73
2023-11-14T13:57:25.682Z,98379.23
2023-11-14T14:00:27.542Z,98369.68
2023-11-14T14:03:29.279Z,98365.16
2023-11-14T14:06:31.325Z,98363.36
2023-11-14T14:09:32.944Z,98362.07
2023-11-14T14:12:34.653Z,98367.44
2023-11-14T14:15:36.393Z,98370.52
2023-11-14T14:18:38.272Z,98367.40
2023-11-14T14:21:39.942Z,98363.43
2023-11-14T14:24:41.632Z,98358.00
2023-11-14T14:27:43.500Z,98358.08
2023-11-14T14:30:45.198Z,98359.59
2023-11-14T14:33:47.096Z,98361.06
2023-11-14T14:36:48.756Z,98359.14
2023-11-14T14:39:52.768Z,98361.55
2023-11-14T14:42:55.173Z,98364.46
2023-11-14T14:45:56.898Z,98368.33
2023-11-14T14:48:58.813Z,98361.25
2023-11-14T14:52:01.838Z,98356.58
2023-11-14T14:55:04.964Z,98357.59
2023-11-14T14:58:06.619Z,98358.30
2023-11-14T15:01:08.280Z,98359.19
2023-11-14T15:04:10.249Z,98361.66
2023-11-14T15:07:12.198Z,98372.92
2023-11-14T15:10:14.071Z,98377.20
2023-11-14T15:13:15.868Z,98369.49
2023-11-14T15:16:17.789Z,98367.52
2023-11-14T15:19:19.903Z,98363.24
2023-11-14T15:22:21.579Z,98360.25
2023-11-14T15:25:23.437Z,98364.52
2023-11-14T15:28:25.228Z,98354.71
2023-11-14T15:31:26.904Z,98349.58
2023-11-14T15:34:28.848Z,98353.88
2023-11-14T15:37:30.532Z,98346.70
2023-11-14T15:40:32.770Z,98345.73
2023-11-14T15:43:34.450Z,98348.58
2023-11-14T15:46:36.131Z,98354.94
2023-11-14T15:49:37.801Z,98361.83
2023-11-14T15:52:39.676Z,98353.04
2023-11-14T15:55:41.349Z,98354.40
2023-11-14T15:58:43.041Z,98357.42
2023-11-14T16:01:47.453Z,98358.26
2023-11-14T16:04:50.421Z,98365.65
2023-11-14T16:07:52.280Z,98371.27
2023-11-14T16:10:53.947Z,98367.23
2023-11-14T16:13:56.118Z,98378.01
2023-11-14T16:16:57.905Z,98378.45
2023-11-14T16:19:59.702Z,98380.50
2023-11-14T16:23:01.592Z,98379.78
2023-11-14T16:26:03.368Z,98382.13
2023-11-14T16:29:05.152Z,98384.93
2023-11-14T16:32:07.544Z,98385.58
2023-11-14T16:35:09.430Z,98394.33
2023-11-14T16:38:11.219Z,98397.11
2023-11-14T16:41:13.415Z,98393.86
2023-11-14T16:44:15.099Z,98394.54
2023-11-14T16:47:16.935Z,98383.20
2023-11-14T16:50:19.099Z,98378.30
2023-11-14T16:53:20.981Z,98381.31
2023-11-14T16:56:22.717Z,98380.06
2023-11-14T16:59:27.165Z,98377.10
2023-11-14T17:02:29.172Z,98376.51
2023-11-14T17:05:31.416Z,98378.67
2023-11-14T17:08:33.746Z,98374.66
2023-11-14T17:11:35.521Z,98371.36
2023-11-14T17:14:37.178Z,98373.69
2023-11-14T17:17:40.064Z,98370.07
2023-11-14T17:20:42.006Z,98368.62
2023-11-14T17:23:43.766Z,98368.26
2023-11-14T17:26:45.509Z,98372.84
2023-11-14T17:29:49.948Z,98371.26
2023-11-14T17:32:52.177Z,98372.77
2023-11-14T17:35:54.000Z,98375.01
2023-11-14T17:38:55.801Z,98382.70
2023-11-14T17:41:58.622Z,98376.62
2023-11-14T17:45:00.438Z,98373.45
2023-11-14T17:48:02.459Z,98371.35
2023-11-14T17:51:04.667Z,98368.98
2023-11-14T17:54:07.032Z,98371.95
2023-11-14T17:57:10.925Z,98371.46
2023-11-14T18:00:16.236Z,98366.71
2023-11-14T18:03:18.091Z,98370.33
2023-11-14T18:06:20.159Z,98362.01
2023-11-14T18:09:22.219Z,98348.13
2023-11-14T18:12:23.931Z,98344.39
2023-11-14T18:15:25.685Z,98343.28
2023-11-14T18:18:27.477Z,98333.59
2023-11-14T18:21:29.277Z,98328.47
2023-11-14T18:24:30.952Z,98325.83
2023-11-14T18:27:32.939Z,98331.65
2023-11-14T18:30:34.837Z,98329.45
2023-11-14T18:33:36.649Z,98331.50
2023-11-14T18:36:38.462Z,98328.61
2023-11-14T18:39:41.052Z,98324.35
2023-11-14T18:42:43.031Z,98322.52
2023-11-14T18:45:45.269Z,98327.72
2023-11-14T18:48:47.350Z,98334.90
2023-11-14T18:51:49.142Z,98337.17
2023-11-14T18:54:50.947Z,98323.94
2023-11-14T18:57:52.611Z,98323.48
2023-11-14T19:00:57.292Z,98312.80
2023-11-14T19:03:59.279Z,98311.18
2023-11-14T19:07:01.175Z,98311.42
2023-11-14T19:10:03.274Z,98308.98
2023-11-14T19:13:05.407Z,98302.02
2023-11-14T19:16:07.647Z,98297.22
2023-11-14T19:19:09.427Z,98297.20
2023-11-14T19:22:39.078Z,98295.08
2023-11-14T19:25:33.015Z,98297.27
2023-11-14T19:28:37.149Z,98294.65
2023-11-14T19:31:39.327Z,98300.48
2023-11-14T19:34:41.051Z,98297.77
2023-11-14T19:37:42.804Z,98290.70
2023-11-14T19:40:44.466Z,98294.45
2023-11-14T19:43:46.893Z,98292.20
2023-11-14T19:46:48.888Z,98283.63
2023-11-14T19:49:50.643Z,98278.54
2023-11-14T19:52:52.345Z,98276.71
2023-11-14T19:55:54.221Z,98268.20
2023-11-14T19:58:55.924Z,98262.49
2023-11-14T20:01:57.572Z,98260.08
2023-11-14T20:04:59.303Z,98267.39
2023-11-14T20:08:00.968Z,98268.77
2023-11-14T20:11:02.836Z,98268.02
2023-11-14T20:14:04.464Z,98266.02
2023-11-14T20:17:06.173Z,98268.75
2023-11-14T20:20:08.940Z,98263.80
2023-11-14T20:23:10.565Z,98262.70
2023-11-14T20:26:12.434Z,98256.89
2023-11-14T20:29:14.065Z,98258.85
2023-11-14T20:32:15.949Z,98255.98
2023-11-14T20:35:17.695Z,98250.54
2023-11-14T20:38:19.424Z,98250.29
2023-11-14T20:41:21.177Z,98248.60
2023-11-14T20:44:22.891Z,98232.91
2023-11-14T20:47:24.869Z,98239.39
2023-11-14T20:50:26.604Z,98234.13
2023-11-14T20:53:28.373Z,98237.17
2023-11-14T20:56:30.136Z,98229.80
2023-11-14T20:59:31.942Z,98219.10
2023-11-14T21:02:33.824Z,98219.30
2023-11-14T21:05:35.559Z,98223.27
2023-11-14T21:08:37.467Z,98222.46
2023-11-14T21:11:43.273Z,98210.38
2023-11-14T21:14:45.025Z,98205.08
2023-11-14T21:17:52.644Z,98195.60
2023-11-14T21:20:55.004Z,98188.29
2023-11-14T21:23:56.843Z,98186.11
2023-11-14T21:26:58.919Z,98186.48
2023-11-14T21:30:00.646Z,98185.75
2023-11-14T21:33:02.502Z,98196.08
2023-11-14T21:36:05.180Z,98197.77
2023-11-14T21:39:07.080Z,98205.15
2023-11-14T21:42:08.973Z,98201.79
2023-11-14T21:45:11.455Z,98192.85
2023-11-14T21:48:13.216Z,98189.95
2023-11-14T21:51:17.562Z,98180.41
2023-11-14T21:54:19.410Z,98181.34
2023-11-14T21:57:20.994Z,98179.45
2023-11-14T22:00:22.697Z,98187.71
2023-11-14T22:03:24.469Z,98186.84
2023-11-14T22:06:26.319Z,98189.23
2023-11-14T22:09:28.286Z,98187.56
2023-11-14T22:12:30.371Z,98189.23
2023-11-14T22:15:32.046Z,98184.27
2023-11-14T22:18:33.680Z,98181.36
2023-11-14T22:21:39.834Z,98176.38
2023-11-14T22:24:41.488Z,98172.80
2023-11-14T22:27:43.189Z,98169.02
2023-11-14T22:30:44.877Z,98162.75
2023-11-14T22:33:49.366Z,98155.63
2023-11-14T22:36:51.192Z,98152.33
2023-11-14T22:39:52.868Z,98149.20
2023-11-14T22:42:54.767Z,98146.61
2023-11-14T22:45:56.473Z,98144.47
2023-11-14T22:48:58.219Z,98139.95
2023-11-14T22:51:59.881Z,98134.86
2023-11-14T22:55:04.246Z,98135.25
2023-11-14T22:58:06.642Z,98134.47
2023-11-14T23:01:08.528Z,98135.16
2023-11-14T23:04:13.603Z,98135.33
2023-11-14T23:07:17.817Z,98133.65
2023-11-14T23:10:19.518Z,98137.21
2023-11-14T23:13:21.483Z,98137.48
2023-11-14T23:16:23.261Z,98132.91
2023-11-14T23:19:25.305Z,98129.20
2023-11-14T23:22:27.137Z,98121.16
2023-11-14T23:25:28.914Z,98122.10
2023-11-14T23:28:30.973Z,98117.35
2023-11-14T23:31:33.051Z,98113.83
2023-11-14T23:34:34.771Z,98111.45
2023-11-14T23:37:36.771Z,98109.65
2023-11-14T23:40:38.547Z,98106.16
2023-11-14T23:43:40.606Z,98108.88
2023-11-14T23:46:42.542Z,98108.12
2023-11-14T23:49:44.284Z,98103.97
2023-11-14T23:52:49.377Z,98106.69
2023-11-14T23:55:53.258Z,98107.26
2023-11-14T23:58:55.056Z,98108.20
